Time;durP1;ratioP1;P1;durP2;ratioP2;P2;SDS_P1;SDS_P2;PMS_P1;PMS_P2;Temp;Humidity;BMP_temperature;BMP_pressure;BME280_temperature;BME280_humidity;BME280_pressure;Samples;Min_cycle;Max_cycle;Signal;HPM_P1;HPM_P2
2022/09/13 00:02:19;;;;;;;9.52;6.78;;;;;;;;;;5045858;28;20099;-78
2022/09/13 00:04:45;;;;;;;10.25;6.95;;;;;;;;;;5045062;28;20119;-78
2022/09/13 00:07:11;;;;;;;9.55;6.18;;;;;;;;;;5046258;28;20187;-78
2022/09/13 00:09:37;;;;;;;6.90;5.97;;;;;;;;;;5043021;28;20091;-79
2022/09/13 00:12:03;;;;;;;6.13;5.10;;;;;;;;;;5048152;28;20503;-79
2022/09/13 00:14:29;;;;;;;7.15;4.70;;;;;;;;;;5045567;28;20623;-77
2022/09/13 00:16:55;;;;;;;8.25;4.57;;;;;;;;;;5049593;28;20123;-79
2022/09/13 00:19:21;;;;;;;7.28;4.80;;;;;;;;;;5041450;28;20199;-79
2022/09/13 00:21:47;;;;;;;5.90;4.60;;;;;;;;;;5044276;28;20097;-78
2022/09/13 00:24:13;;;;;;;8.13;4.60;;;;;;;;;;5047285;28;20518;-80
2022/09/13 00:26:42;;;;;;;8.18;4.50;;;;;;;;;;5040161;28;20053;-79
2022/09/13 00:29:08;;;;;;;9.27;4.55;;;;;;;;;;5042968;28;20534;-79
2022/09/13 00:31:34;;;;;;;6.18;4.50;;;;;;;;;;5043789;28;20040;-79
2022/09/13 00:34:00;;;;;;;5.50;4.07;;;;;;;;;;5037497;28;20041;-80
2022/09/13 00:36:26;;;;;;;7.25;4.38;;;;;;;;;;5043189;28;20164;-79
2022/09/13 00:38:52;;;;;;;7.18;3.85;;;;;;;;;;5048119;28;20135;-79
2022/09/13 00:41:19;;;;;;;8.35;3.75;;;;;;;;;;5044573;28;20044;-80
2022/09/13 00:43:45;;;;;;;4.93;3.50;;;;;;;;;;5041721;28;20040;-79
2022/09/13 00:46:13;;;;;;;4.78;3.85;;;;;;;;;;5042821;28;20389;-79
2022/09/13 00:48:39;;;;;;;5.88;3.78;;;;;;;;;;5041513;28;20084;-79
2022/09/13 00:51:06;;;;;;;6.97;3.83;;;;;;;;;;5048035;28;20131;-80
2022/09/13 00:53:33;;;;;;;8.63;3.90;;;;;;;;;;5042255;28;20053;-79
2022/09/13 00:56:06;;;;;;;8.30;3.80;;;;;;;;;;5045726;28;20048;-79
2022/09/13 00:58:34;;;;;;;5.75;3.85;;;;;;;;;;5043507;28;20041;-79
2022/09/13 01:01:02;;;;;;;7.50;3.92;;;;;;;;;;5041789;28;20041;-79
2022/09/13 01:03:31;;;;;;;7.38;4.38;;;;;;;;;;5047075;28;20079;-80
2022/09/13 01:06:00;;;;;;;6.10;3.58;;;;;;;;;;5036512;28;20053;-80
2022/09/13 01:08:28;;;;;;;6.28;3.90;;;;;;;;;;5046752;28;20455;-79
2022/09/13 01:10:57;;;;;;;4.72;3.53;;;;;;;;;;5043870;28;20040;-79
2022/09/13 01:13:25;;;;;;;7.65;4.45;;;;;;;;;;5044754;28;20146;-79
2022/09/13 01:15:51;;;;;;;7.63;3.90;;;;;;;;;;5043141;28;20062;-79
2022/09/13 01:18:18;;;;;;;8.02;4.25;;;;;;;;;;5045384;28;20041;-79
2022/09/13 01:20:47;;;;;;;6.55;3.70;;;;;;;;;;5039000;28;20117;-79
2022/09/13 01:23:33;;;;;;;7.45;3.70;;;;;;;;;;5042535;28;20045;-79
2022/09/13 01:25:59;;;;;;;7.82;3.97;;;;;;;;;;5035748;28;20049;-79
2022/09/13 01:28:47;;;;;;;5.70;3.75;;;;;;;;;;5045126;28;20057;-79
2022/09/13 01:31:19;;;;;;;7.13;4.10;;;;;;;;;;5040825;28;20040;-78
2022/09/13 01:33:51;;;;;;;9.20;4.03;;;;;;;;;;5041175;28;20432;-79
2022/09/13 01:36:50;;;;;;;6.38;3.75;;;;;;;;;;5038113;28;20105;-79
2022/09/13 01:39:25;;;;;;;7.22;4.10;;;;;;;;;;5010316;28;20048;-79
2022/09/13 01:42:16;;;;;;;7.75;3.88;;;;;;;;;;5045649;28;20091;-79
2022/09/13 01:45:01;;;;;;;5.70;3.88;;;;;;;;;;5043347;28;20041;-78
2022/09/13 01:47:40;;;;;;;9.57;4.30;;;;;;;;;;5038895;28;20053;-78
2022/09/13 01:50:19;;;;;;;7.72;4.10;;;;;;;;;;5045549;28;20154;-79
2022/09/13 01:52:55;;;;;;;8.55;4.00;;;;;;;;;;5044497;28;20049;-79
2022/09/13 01:55:22;;;;;;;8.82;3.90;;;;;;;;;;5044417;28;20202;-79
2022/09/13 01:57:54;;;;;;;5.55;4.05;;;;;;;;;;5044886;28;20048;-79
2022/09/13 02:00:20;;;;;;;6.20;3.43;;;;;;;;;;5044828;28;20043;-79
2022/09/13 02:02:52;;;;;;;4.97;1.92;;;;;;;;;;5041133;28;20049;-78
2022/09/13 02:05:31;;;;;;;2.47;1.25;;;;;;;;;;5041063;28;20043;-79
2022/09/13 02:08:00;;;;;;;1.27;1.15;;;;;;;;;;5042927;28;20079;-79
2022/09/13 02:10:30;;;;;;;2.28;1.15;;;;;;;;;;5043473;28;20048;-78
2022/09/13 02:12:57;;;;;;;2.33;1.50;;;;;;;;;;5043119;28;20067;-78
2022/09/13 02:15:29;;;;;;;3.05;1.38;;;;;;;;;;5043201;28;20047;-78
2022/09/13 02:18:01;;;;;;;3.88;1.40;;;;;;;;;;5041368;28;20057;-78
2022/09/13 02:20:30;;;;;;;2.90;1.40;;;;;;;;;;5043005;28;20052;-78
2022/09/13 02:22:57;;;;;;;4.38;1.42;;;;;;;;;;5045598;28;20067;-78
2022/09/13 02:25:25;;;;;;;4.85;1.48;;;;;;;;;;5042035;28;20590;-77
2022/09/13 02:27:53;;;;;;;3.60;1.48;;;;;;;;;;5044967;28;20045;-78
2022/09/13 02:30:19;;;;;;;4.05;1.38;;;;;;;;;;5040253;28;20037;-78
2022/09/13 02:32:53;;;;;;;3.28;1.38;;;;;;;;;;5040979;28;20049;-78
2022/09/13 02:35:25;;;;;;;5.93;1.90;;;;;;;;;;5040586;28;20110;-78
2022/09/13 02:37:55;;;;;;;1.87;1.20;;;;;;;;;;5045397;28;20059;-78
2022/09/13 02:40:25;;;;;;;1.88;1.20;;;;;;;;;;5045523;28;20048;-78
2022/09/13 02:42:54;;;;;;;2.65;1.40;;;;;;;;;;5042179;28;20053;-78
2022/09/13 02:45:21;;;;;;;1.52;1.35;;;;;;;;;;5042079;28;20047;-78
2022/09/13 02:47:55;;;;;;;4.95;1.50;;;;;;;;;;5044271;28;20048;-78
2022/09/13 02:50:31;;;;;;;1.55;1.30;;;;;;;;;;5044398;28;20056;-78
2022/09/13 02:53:06;;;;;;;2.78;1.63;;;;;;;;;;5044260;28;20044;-79
2022/09/13 02:55:56;;;;;;;2.67;1.27;;;;;;;;;;5046275;28;20044;-78
2022/09/13 02:58:34;;;;;;;1.45;1.20;;;;;;;;;;5044924;28;20080;-79
2022/09/13 03:01:00;;;;;;;2.33;1.20;;;;;;;;;;5041697;28;20044;-79
2022/09/13 03:03:26;;;;;;;1.75;1.20;;;;;;;;;;5045261;28;20049;-79
2022/09/13 03:05:53;;;;;;;1.20;1.10;;;;;;;;;;5038945;28;20693;-79
2022/09/13 03:08:20;;;;;;;2.95;1.42;;;;;;;;;;5038719;28;20147;-78
2022/09/13 03:11:05;;;;;;;4.57;1.50;;;;;;;;;;5044587;28;20045;-79
2022/09/13 03:13:31;;;;;;;3.42;1.30;;;;;;;;;;5042965;28;20492;-78
2022/09/13 03:16:13;;;;;;;3.30;1.40;;;;;;;;;;5040908;28;20115;-78
2022/09/13 03:18:42;;;;;;;3.72;1.20;;;;;;;;;;5042960;28;20520;-78
2022/09/13 03:21:23;;;;;;;2.60;1.20;;;;;;;;;;5043272;28;20053;-79
2022/09/13 03:23:51;;;;;;;2.58;1.20;;;;;;;;;;5044272;28;20866;-78
2022/09/13 03:26:20;;;;;;;1.77;1.30;;;;;;;;;;5041350;28;20068;-78
2022/09/13 03:28:59;;;;;;;2.90;1.23;;;;;;;;;;5040557;28;20512;-79
2022/09/13 03:31:44;;;;;;;3.00;1.33;;;;;;;;;;5046818;28;20484;-79
2022/09/13 03:34:15;;;;;;;4.68;1.30;;;;;;;;;;5048446;28;20068;-79
2022/09/13 03:36:47;;;;;;;3.33;1.38;;;;;;;;;;5041450;28;20544;-78
2022/09/13 03:39:28;;;;;;;3.57;1.13;;;;;;;;;;5046382;28;20045;-79
2022/09/13 03:41:56;;;;;;;2.95;1.25;;;;;;;;;;5049604;28;20807;-78
2022/09/13 03:44:24;;;;;;;6.18;1.73;;;;;;;;;;5042998;28;20098;-78
2022/09/13 03:46:55;;;;;;;3.17;1.25;;;;;;;;;;5048214;28;20171;-78
2022/09/13 03:49:22;;;;;;;4.47;1.33;;;;;;;;;;5039523;28;20061;-78
2022/09/13 03:51:50;;;;;;;3.42;1.42;;;;;;;;;;5044759;28;20401;-79
2022/09/13 03:54:18;;;;;;;5.85;1.60;;;;;;;;;;5048339;28;20045;-79
2022/09/13 03:57:04;;;;;;;2.20;1.50;;;;;;;;;;5041893;28;20041;-79
2022/09/13 03:59:35;;;;;;;4.93;1.70;;;;;;;;;;5046041;28;20056;-78
2022/09/13 04:02:01;;;;;;;3.88;1.50;;;;;;;;;;5040953;28;20046;-79
2022/09/13 04:04:27;;;;;;;3.45;1.50;;;;;;;;;;5045931;28;20049;-79
2022/09/13 04:06:54;;;;;;;6.78;1.90;;;;;;;;;;5042450;28;20048;-78
2022/09/13 04:09:21;;;;;;;6.88;1.85;;;;;;;;;;5046634;28;20156;-78
2022/09/13 04:11:47;;;;;;;4.93;1.60;;;;;;;;;;5046032;28;20053;-79
2022/09/13 04:14:15;;;;;;;2.05;1.60;;;;;;;;;;5046268;28;20460;-79
2022/09/13 04:16:41;;;;;;;2.97;1.40;;;;;;;;;;5048085;28;20075;-78
2022/09/13 04:19:07;;;;;;;3.17;1.40;;;;;;;;;;5045379;28;20556;-79
2022/09/13 04:21:33;;;;;;;6.20;1.48;;;;;;;;;;5042368;28;20052;-79
2022/09/13 04:23:59;;;;;;;5.20;1.70;;;;;;;;;;5042211;28;20037;-79
2022/09/13 04:26:25;;;;;;;2.03;1.60;;;;;;;;;;5045968;28;20045;-78
2022/09/13 04:28:52;;;;;;;5.85;1.95;;;;;;;;;;5046039;28;20052;-78
2022/09/13 04:31:18;;;;;;;7.63;1.77;;;;;;;;;;5044790;28;20068;-78
2022/09/13 04:33:44;;;;;;;6.78;1.73;;;;;;;;;;5040688;28;20436;-79
2022/09/13 04:36:10;;;;;;;3.97;1.60;;;;;;;;;;5044899;28;20420;-79
2022/09/13 04:38:36;;;;;;;4.82;1.60;;;;;;;;;;5043643;28;20061;-79
2022/09/13 04:41:02;;;;;;;4.47;1.90;;;;;;;;;;5048541;28;20056;-78
2022/09/13 04:43:31;;;;;;;5.65;1.60;;;;;;;;;;5043885;28;20049;-79
2022/09/13 04:46:00;;;;;;;4.60;1.50;;;;;;;;;;5045310;28;20041;-78
2022/09/13 04:48:27;;;;;;;2.70;1.60;;;;;;;;;;5044486;28;20053;-78
2022/09/13 04:50:53;;;;;;;3.95;1.52;;;;;;;;;;5047237;28;20412;-78
2022/09/13 04:53:19;;;;;;;2.05;1.55;;;;;;;;;;5044489;28;20045;-79
2022/09/13 04:55:45;;;;;;;7.75;2.00;;;;;;;;;;5047353;28;20033;-79
2022/09/13 04:58:11;;;;;;;4.70;1.90;;;;;;;;;;5047314;28;20037;-79
2022/09/13 05:00:37;;;;;;;3.50;1.80;;;;;;;;;;5040472;28;20080;-79
2022/09/13 05:03:03;;;;;;;5.78;1.65;;;;;;;;;;5046309;28;20086;-79
2022/09/13 05:05:31;;;;;;;3.35;1.80;;;;;;;;;;5046895;28;20049;-80
2022/09/13 05:07:57;;;;;;;5.65;1.80;;;;;;;;;;5043319;28;20057;-79
2022/09/13 05:10:23;;;;;;;4.22;1.65;;;;;;;;;;5043013;28;20566;-79
2022/09/13 05:12:49;;;;;;;4.10;1.67;;;;;;;;;;5047342;28;20076;-79
2022/09/13 05:15:15;;;;;;;5.55;2.20;;;;;;;;;;5043898;28;20037;-79
2022/09/13 05:17:41;;;;;;;4.90;1.80;;;;;;;;;;5049330;28;20397;-79
2022/09/13 05:20:08;;;;;;;5.65;1.88;;;;;;;;;;5047809;28;20033;-79
2022/09/13 05:22:34;;;;;;;4.18;1.90;;;;;;;;;;5044238;28;20052;-79
2022/09/13 05:25:00;;;;;;;8.70;1.92;;;;;;;;;;5045472;28;20067;-79
2022/09/13 05:27:26;;;;;;;3.28;1.60;;;;;;;;;;5047293;28;20119;-79
2022/09/13 05:29:52;;;;;;;6.40;1.70;;;;;;;;;;5039910;28;20105;-78
2022/09/13 05:32:18;;;;;;;4.10;1.67;;;;;;;;;;5044516;28;20049;-78
2022/09/13 05:34:44;;;;;;;3.63;1.50;;;;;;;;;;5045696;28;20048;-79
2022/09/13 05:37:10;;;;;;;7.78;1.60;;;;;;;;;;5047391;28;20037;-79
2022/09/13 05:39:36;;;;;;;4.93;1.75;;;;;;;;;;5048222;28;20123;-79
2022/09/13 05:42:02;;;;;;;5.90;1.70;;;;;;;;;;5043796;28;20462;-79
2022/09/13 05:44:28;;;;;;;5.18;1.63;;;;;;;;;;5044614;28;21814;-79
2022/09/13 05:46:54;;;;;;;3.15;1.80;;;;;;;;;;5050145;28;20084;-79
2022/09/13 05:49:21;;;;;;;7.60;1.83;;;;;;;;;;5043420;28;20047;-78
2022/09/13 05:51:47;;;;;;;4.35;1.80;;;;;;;;;;5046830;28;20044;-78
2022/09/13 05:54:13;;;;;;;5.78;1.98;;;;;;;;;;5037279;28;20044;-78
2022/09/13 05:56:39;;;;;;;5.57;2.17;;;;;;;;;;5048332;28;20137;-78
2022/09/13 05:59:05;;;;;;;5.68;1.80;;;;;;;;;;5045305;28;20091;-79
2022/09/13 06:01:31;;;;;;;7.25;1.80;;;;;;;;;;5043873;28;20041;-78
2022/09/13 06:03:58;;;;;;;6.75;2.10;;;;;;;;;;5040054;28;20033;-80
2022/09/13 06:06:25;;;;;;;4.90;1.60;;;;;;;;;;5044242;28;20044;-79
2022/09/13 06:08:56;;;;;;;4.28;1.60;;;;;;;;;;5042543;28;20400;-78
2022/09/13 06:11:23;;;;;;;3.75;1.70;;;;;;;;;;5042019;28;20045;-79
2022/09/13 06:13:50;;;;;;;2.45;1.33;;;;;;;;;;5044426;28;20378;-78
2022/09/13 06:16:16;;;;;;;3.13;1.40;;;;;;;;;;5041512;28;20206;-79
2022/09/13 06:18:42;;;;;;;3.03;1.50;;;;;;;;;;5045975;28;20131;-79
2022/09/13 06:21:10;;;;;;;5.50;1.55;;;;;;;;;;5047461;28;20045;-79
2022/09/13 06:23:36;;;;;;;5.53;1.58;;;;;;;;;;5043228;28;20084;-79
2022/09/13 06:26:04;;;;;;;3.95;1.40;;;;;;;;;;5042486;28;20492;-79
2022/09/13 06:28:30;;;;;;;1.83;1.40;;;;;;;;;;5041972;28;20531;-78
2022/09/13 06:31:04;;;;;;;2.60;1.40;;;;;;;;;;5047502;28;20041;-79
2022/09/13 06:33:31;;;;;;;2.90;1.30;;;;;;;;;;5045396;28;20044;-79
2022/09/13 06:36:00;;;;;;;3.15;1.30;;;;;;;;;;5041032;28;20412;-79
2022/09/13 06:38:26;;;;;;;2.47;1.30;;;;;;;;;;5039132;28;20493;-78
2022/09/13 06:41:01;;;;;;;2.90;1.50;;;;;;;;;;5035463;28;20124;-79
2022/09/13 06:43:27;;;;;;;4.13;1.40;;;;;;;;;;5050323;28;20045;-78
2022/09/13 06:45:53;;;;;;;3.20;1.63;;;;;;;;;;5045071;28;20102;-79
2022/09/13 06:48:19;;;;;;;2.33;1.40;;;;;;;;;;5032009;28;20041;-78
2022/09/13 06:50:45;;;;;;;5.65;1.45;;;;;;;;;;5033686;28;20049;-79
2022/09/13 06:53:11;;;;;;;2.88;1.88;;;;;;;;;;5048452;28;20389;-79
2022/09/13 06:55:37;;;;;;;5.18;1.60;;;;;;;;;;5045511;28;20033;-79
2022/09/13 06:58:03;;;;;;;2.13;1.50;;;;;;;;;;5045170;28;20049;-78
2022/09/13 07:00:30;;;;;;;2.65;1.45;;;;;;;;;;5042272;28;20051;-79
2022/09/13 07:02:56;;;;;;;3.22;1.60;;;;;;;;;;5053351;28;20128;-80
2022/09/13 07:05:22;;;;;;;4.70;1.40;;;;;;;;;;5049297;28;20095;-79
2022/09/13 07:07:48;;;;;;;4.22;1.67;;;;;;;;;;5049540;28;20080;-80
2022/09/13 07:10:14;;;;;;;4.68;1.60;;;;;;;;;;5044331;28;20052;-80
2022/09/13 07:12:41;;;;;;;3.30;1.52;;;;;;;;;;5036878;28;20369;-79
2022/09/13 07:15:07;;;;;;;3.55;1.60;;;;;;;;;;5049531;28;20068;-81
2022/09/13 07:17:33;;;;;;;5.75;1.50;;;;;;;;;;5052273;28;20049;-80
2022/09/13 07:19:59;;;;;;;6.55;1.40;;;;;;;;;;5037685;28;20057;-80
2022/09/13 07:22:26;;;;;;;5.68;1.60;;;;;;;;;;5047953;28;20377;-80
2022/09/13 07:24:53;;;;;;;3.08;1.60;;;;;;;;;;5039782;28;20050;-79
2022/09/13 07:27:19;;;;;;;2.33;1.70;;;;;;;;;;5041449;28;20079;-81
2022/09/13 07:29:45;;;;;;;3.10;1.33;;;;;;;;;;5045219;28;20049;-80
2022/09/13 07:32:12;;;;;;;3.88;1.63;;;;;;;;;;5049436;28;20535;-80
2022/09/13 07:34:38;;;;;;;5.20;1.50;;;;;;;;;;5052921;28;20076;-80
2022/09/13 07:37:04;;;;;;;3.67;1.40;;;;;;;;;;5050693;28;20128;-80
2022/09/13 07:39:30;;;;;;;2.10;1.52;;;;;;;;;;5047464;28;20494;-80
2022/09/13 07:41:56;;;;;;;3.90;1.52;;;;;;;;;;5047738;28;20043;-80
2022/09/13 07:44:22;;;;;;;4.55;1.85;;;;;;;;;;5041219;28;20057;-80
2022/09/13 07:46:48;;;;;;;6.18;1.65;;;;;;;;;;5041250;28;20543;-80
2022/09/13 07:49:16;;;;;;;5.88;1.73;;;;;;;;;;5048686;28;20411;-80
2022/09/13 07:51:43;;;;;;;3.72;1.30;;;;;;;;;;5053288;28;20053;-80
2022/09/13 07:54:13;;;;;;;3.67;1.48;;;;;;;;;;5039175;28;20470;-80
2022/09/13 07:56:40;;;;;;;2.63;1.30;;;;;;;;;;5049543;28;20069;-79
2022/09/13 07:59:08;;;;;;;3.35;1.58;;;;;;;;;;5049395;28;20112;-80
2022/09/13 08:01:35;;;;;;;4.63;1.80;;;;;;;;;;5046258;28;20053;-80
2022/09/13 08:04:02;;;;;;;4.68;1.42;;;;;;;;;;5039484;28;20046;-80
2022/09/13 08:06:30;;;;;;;3.47;1.80;;;;;;;;;;5049562;28;20033;-80
2022/09/13 08:08:56;;;;;;;5.32;1.88;;;;;;;;;;5051218;28;20060;-81
2022/09/13 08:11:24;;;;;;;1.83;1.40;;;;;;;;;;5048904;28;20045;-80
2022/09/13 08:13:51;;;;;;;4.68;1.60;;;;;;;;;;5048763;28;20087;-79
2022/09/13 08:16:18;;;;;;;3.75;1.50;;;;;;;;;;5048477;28;20048;-79
2022/09/13 08:18:44;;;;;;;3.88;1.30;;;;;;;;;;5050546;28;20139;-79
2022/09/13 08:21:11;;;;;;;3.08;1.23;;;;;;;;;;5048656;28;20389;-79
2022/09/13 08:23:37;;;;;;;7.30;1.70;;;;;;;;;;5044994;28;20044;-81
2022/09/13 08:26:03;;;;;;;5.07;1.60;;;;;;;;;;5044948;28;20338;-80
2022/09/13 08:28:30;;;;;;;3.42;1.35;;;;;;;;;;5051336;28;20511;-80
2022/09/13 08:30:56;;;;;;;2.10;1.30;;;;;;;;;;5041505;28;20056;-81
2022/09/13 08:33:22;;;;;;;3.50;1.40;;;;;;;;;;5032310;28;20063;-80
2022/09/13 08:35:52;;;;;;;5.85;1.90;;;;;;;;;;5033165;28;20042;-80
2022/09/13 08:38:18;;;;;;;8.93;1.52;;;;;;;;;;5042980;28;20106;-80
2022/09/13 08:40:47;;;;;;;5.40;1.85;;;;;;;;;;5048145;28;20041;-80
2022/09/13 08:43:21;;;;;;;6.90;1.80;;;;;;;;;;5035361;28;20053;-81
2022/09/13 08:45:58;;;;;;;5.22;1.60;;;;;;;;;;5034664;28;20045;-80
2022/09/13 08:48:30;;;;;;;5.15;1.55;;;;;;;;;;5040248;28;20515;-80
2022/09/13 08:50:58;;;;;;;3.15;1.63;;;;;;;;;;5051205;28;20056;-80
2022/09/13 08:53:31;;;;;;;3.22;1.50;;;;;;;;;;5047659;28;20064;-81
2022/09/13 08:56:05;;;;;;;2.67;1.30;;;;;;;;;;5032110;28;20056;-80
2022/09/13 08:58:37;;;;;;;3.28;1.30;;;;;;;;;;5033989;28;20129;-80
2022/09/13 09:01:18;;;;;;;3.40;1.33;;;;;;;;;;5052413;28;20045;-80
2022/09/13 09:04:12;;;;;;;2.50;1.23;;;;;;;;;;5031665;28;20049;-80
2022/09/13 09:06:38;;;;;;;3.17;1.58;;;;;;;;;;5039249;28;20898;-80
2022/09/13 09:09:05;;;;;;;5.88;1.80;;;;;;;;;;5033128;28;20045;-80
2022/09/13 09:11:35;;;;;;;4.93;1.50;;;;;;;;;;5031402;28;20050;-80
2022/09/13 09:14:08;;;;;;;4.30;1.40;;;;;;;;;;5035486;28;20044;-80
2022/09/13 09:16:39;;;;;;;3.15;1.38;;;;;;;;;;5050816;28;20511;-80
2022/09/13 09:19:20;;;;;;;5.20;1.60;;;;;;;;;;5036898;28;20049;-81
2022/09/13 09:21:48;;;;;;;2.75;1.23;;;;;;;;;;5041325;28;20435;-80
2022/09/13 09:24:19;;;;;;;3.13;1.20;;;;;;;;;;5040494;28;20068;-80
2022/09/13 09:26:45;;;;;;;2.53;1.25;;;;;;;;;;5038187;28;20037;-79
2022/09/13 09:29:24;;;;;;;3.55;1.30;;;;;;;;;;5049346;28;20052;-79
2022/09/13 09:31:57;;;;;;;4.22;1.40;;;;;;;;;;5051155;28;20056;-80
2022/09/13 09:34:41;;;;;;;8.05;1.67;;;;;;;;;;5037036;28;20119;-80
2022/09/13 09:37:24;;;;;;;6.68;1.58;;;;;;;;;;5030352;28;20064;-81
2022/09/13 09:39:50;;;;;;;;;;;;;;;;;;5041606;28;20136;-80
2022/09/13 09:42:21;;;;;;;4.80;1.33;;;;;;;;;;5049040;28;20464;-80
2022/09/13 09:44:49;;;;;;;6.32;1.48;;;;;;;;;;5042209;28;20140;-80
2022/09/13 09:47:23;;;;;;;4.22;1.40;;;;;;;;;;5049317;28;20053;-80
2022/09/13 09:50:08;;;;;;;3.85;1.63;;;;;;;;;;5051088;28;20083;-80
2022/09/13 09:52:39;;;;;;;3.83;1.27;;;;;;;;;;5040915;28;20056;-80
2022/09/13 09:55:14;;;;;;;5.03;1.50;;;;;;;;;;5041430;28;20098;-81
2022/09/13 09:57:49;;;;;;;3.70;1.23;;;;;;;;;;5042113;28;20045;-80
2022/09/13 10:00:16;;;;;;;6.10;1.60;;;;;;;;;;5050378;28;20083;-80
2022/09/13 10:02:43;;;;;;;5.45;1.80;;;;;;;;;;5032029;28;20049;-81
2022/09/13 10:05:11;;;;;;;2.42;1.42;;;;;;;;;;5040370;28;20041;-80
2022/09/13 10:07:37;;;;;;;6.35;1.40;;;;;;;;;;5050461;28;20060;-81
2022/09/13 10:10:21;;;;;;;3.00;1.20;;;;;;;;;;5049010;28;20127;-80
2022/09/13 10:12:51;;;;;;;2.80;1.20;;;;;;;;;;5045953;28;20490;-80
2022/09/13 10:15:19;;;;;;;4.75;1.42;;;;;;;;;;5041421;28;20045;-80
2022/09/13 10:18:02;;;;;;;3.88;1.70;;;;;;;;;;5049957;28;20056;-80
2022/09/13 10:20:28;;;;;;;3.30;1.20;;;;;;;;;;5038068;28;20055;-79
2022/09/13 10:23:10;;;;;;;4.28;1.20;;;;;;;;;;5044548;28;20555;-78
2022/09/13 10:25:36;;;;;;;3.95;1.08;;;;;;;;;;5047918;28;20429;-79
2022/09/13 10:28:04;;;;;;;3.30;1.30;;;;;;;;;;5048628;28;20047;-79
2022/09/13 10:30:37;;;;;;;2.25;1.08;;;;;;;;;;5047640;28;20084;-79
2022/09/13 10:33:04;;;;;;;4.35;1.35;;;;;;;;;;5048443;28;20144;-78
2022/09/13 10:35:31;;;;;;;4.68;1.38;;;;;;;;;;5048569;28;20435;-78
2022/09/13 10:37:57;;;;;;;3.20;1.40;;;;;;;;;;5045049;28;20049;-79
2022/09/13 10:40:26;;;;;;;4.32;1.30;;;;;;;;;;5035734;28;20103;-79
2022/09/13 10:42:53;;;;;;;4.60;1.42;;;;;;;;;;5034494;28;20445;-78
2022/09/13 10:45:23;;;;;;;5.25;1.65;;;;;;;;;;5048616;28;20059;-78
2022/09/13 10:47:51;;;;;;;3.10;1.33;;;;;;;;;;5053239;28;20052;-78
2022/09/13 10:50:17;;;;;;;2.67;1.42;;;;;;;;;;5052897;28;20107;-78
2022/09/13 10:52:45;;;;;;;3.17;1.38;;;;;;;;;;5052739;28;20052;-79
2022/09/13 10:55:17;;;;;;;5.10;1.55;;;;;;;;;;5052452;28;20049;-78
2022/09/13 10:57:44;;;;;;;3.33;1.30;;;;;;;;;;5051035;28;20099;-78
2022/09/13 11:00:16;;;;;;;4.10;1.60;;;;;;;;;;5067923;28;20041;-79
2022/09/13 11:02:57;;;;;;;4.65;1.50;;;;;;;;;;5050155;28;20049;-78
2022/09/13 11:05:36;;;;;;;3.05;1.48;;;;;;;;;;5054143;28;20084;-79
2022/09/13 11:08:02;;;;;;;4.65;1.45;;;;;;;;;;5036415;28;20045;-79
2022/09/13 11:10:34;;;;;;;6.47;1.75;;;;;;;;;;5048651;28;20052;-78
2022/09/13 11:13:14;;;;;;;4.50;1.70;;;;;;;;;;5046123;28;20059;-78
2022/09/13 11:15:59;;;;;;;3.78;1.70;;;;;;;;;;5048299;28;20864;-78
2022/09/13 11:18:31;;;;;;;4.75;1.60;;;;;;;;;;5049252;28;20055;-79
2022/09/13 11:21:00;;;;;;;4.83;1.63;;;;;;;;;;5052595;28;20500;-78
2022/09/13 11:23:48;;;;;;;3.88;1.65;;;;;;;;;;5055164;28;20048;-78
2022/09/13 11:26:20;;;;;;;4.90;1.50;;;;;;;;;;5051153;28;20408;-78
2022/09/13 11:28:49;;;;;;;7.38;1.90;;;;;;;;;;5050027;28;20507;-78
2022/09/13 11:31:34;;;;;;;4.72;1.50;;;;;;;;;;5052194;28;20037;-79
2022/09/13 11:34:06;;;;;;;6.15;1.60;;;;;;;;;;5047693;28;20041;-79
2022/09/13 11:36:38;;;;;;;4.57;2.10;;;;;;;;;;5051129;28;20053;-79
2022/09/13 11:39:15;;;;;;;7.88;1.65;;;;;;;;;;5047129;28;20715;-78
2022/09/13 11:41:51;;;;;;;5.50;1.70;;;;;;;;;;5045920;28;20371;-79
2022/09/13 11:44:26;;;;;;;5.65;1.88;;;;;;;;;;5051127;28;20124;-78
2022/09/13 11:47:00;;;;;;;3.75;1.88;;;;;;;;;;5051979;28;20048;-78
2022/09/13 11:49:32;;;;;;;4.72;1.90;;;;;;;;;;5038874;28;20049;-79
2022/09/13 11:52:06;;;;;;;7.38;1.60;;;;;;;;;;5046217;28;20049;-79
2022/09/13 11:54:51;;;;;;;7.00;1.77;;;;;;;;;;5036912;28;20060;-79
2022/09/13 11:57:21;;;;;;;5.97;2.13;;;;;;;;;;5042511;28;20044;-79
2022/09/13 11:59:50;;;;;;;4.85;2.22;;;;;;;;;;5047564;28;20049;-80
2022/09/13 12:02:35;;;;;;;4.72;1.88;;;;;;;;;;5049599;28;20496;-81
2022/09/13 12:05:06;;;;;;;8.43;1.80;;;;;;;;;;5050953;28;20095;-80
2022/09/13 12:07:38;;;;;;;4.90;1.60;;;;;;;;;;5042218;28;20065;-81
2022/09/13 12:10:07;;;;;;;5.05;1.73;;;;;;;;;;5051402;28;20051;-80
2022/09/13 12:12:34;;;;;;;6.90;1.88;;;;;;;;;;5049354;28;20073;-80
2022/09/13 12:15:02;;;;;;;4.25;1.73;;;;;;;;;;5052123;28;20135;-80
2022/09/13 12:17:37;;;;;;;5.32;1.88;;;;;;;;;;5047981;28;20134;-80
2022/09/13 12:20:05;;;;;;;4.97;1.90;;;;;;;;;;5048589;28;20103;-80
2022/09/13 12:22:33;;;;;;;5.85;1.83;;;;;;;;;;5048720;28;20374;-80
2022/09/13 12:25:02;;;;;;;6.68;1.75;;;;;;;;;;5050084;28;20080;-80
2022/09/13 12:27:33;;;;;;;6.18;1.42;;;;;;;;;;5050607;28;20489;-79
2022/09/13 12:30:05;;;;;;;5.22;1.60;;;;;;;;;;5037508;28;20562;-80
2022/09/13 12:32:31;;;;;;;5.55;1.90;;;;;;;;;;5050904;28;20131;-80
2022/09/13 12:35:24;;;;;;;4.85;1.67;;;;;;;;;;5052288;28;20404;-80
2022/09/13 12:37:56;;;;;;;5.55;1.70;;;;;;;;;;5041774;28;20067;-80
2022/09/13 12:40:38;;;;;;;4.05;1.70;;;;;;;;;;5040075;28;20083;-80
2022/09/13 12:43:16;;;;;;;5.75;2.58;;;;;;;;;;5048631;28;20045;-80
2022/09/13 12:46:01;;;;;;;5.93;1.42;;;;;;;;;;5043805;28;20060;-79
2022/09/13 12:48:35;;;;;;;2.70;1.63;;;;;;;;;;5048709;28;20056;-79
2022/09/13 12:51:07;;;;;;;4.90;1.70;;;;;;;;;;5050327;28;20045;-79
2022/09/13 12:53:58;;;;;;;7.15;1.73;;;;;;;;;;5033552;28;20078;-78
2022/09/13 12:56:43;;;;;;;6.05;1.75;;;;;;;;;;5050283;28;20455;-79
2022/09/13 12:59:34;;;;;;;6.03;1.58;;;;;;;;;;5046698;28;20139;-79
2022/09/13 13:02:00;;;;;;;9.00;1.60;;;;;;;;;;5046509;28;20106;-79
2022/09/13 13:04:28;;;;;;;4.32;1.52;;;;;;;;;;5036767;28;20049;-80
2022/09/13 13:07:05;;;;;;;4.80;1.58;;;;;;;;;;5051604;28;20045;-79
2022/09/13 13:09:42;;;;;;;3.80;1.30;;;;;;;;;;5034229;28;20049;-79
2022/09/13 13:12:24;;;;;;;5.93;1.55;;;;;;;;;;5047882;28;20048;-82
2022/09/13 13:14:54;;;;;;;4.93;1.70;;;;;;;;;;5046135;28;20063;-82
2022/09/13 13:17:38;;;;;;;3.25;1.35;;;;;;;;;;5047708;28;20694;-83
2022/09/13 13:20:23;;;;;;;4.70;1.50;;;;;;;;;;5043450;28;20044;-83
2022/09/13 13:22:50;;;;;;;4.60;1.58;;;;;;;;;;5030310;28;20052;-83
2022/09/13 13:25:31;;;;;;;6.97;1.73;;;;;;;;;;5039882;28;20120;-82
2022/09/13 13:27:57;;;;;;;4.45;1.55;;;;;;;;;;5043945;28;20041;-82
2022/09/13 13:30:41;;;;;;;5.50;1.58;;;;;;;;;;5050090;28;20129;-81
2022/09/13 13:33:21;;;;;;;4.03;1.65;;;;;;;;;;5052150;28;20131;-81
2022/09/13 13:35:48;;;;;;;3.70;1.67;;;;;;;;;;5046573;28;20059;-81
2022/09/13 13:38:32;;;;;;;3.65;1.40;;;;;;;;;;5046992;28;20124;-77
2022/09/13 13:41:06;;;;;;;2.58;1.30;;;;;;;;;;5047024;28;20182;-76
2022/09/13 13:43:33;;;;;;;2.35;1.35;;;;;;;;;;5048599;28;20045;-77
2022/09/13 13:46:11;;;;;;;5.10;1.65;;;;;;;;;;5047072;28;20076;-76
2022/09/13 13:48:38;;;;;;;2.97;1.50;;;;;;;;;;5044800;28;20393;-77
2022/09/13 13:51:10;;;;;;;4.05;1.35;;;;;;;;;;5039245;28;20060;-76
2022/09/13 13:53:37;;;;;;;4.33;1.57;;;;;;;;;;5048447;28;20064;-76
2022/09/13 13:56:08;;;;;;;5.63;1.48;;;;;;;;;;5047312;28;20373;-76
2022/09/13 13:58:45;;;;;;;3.85;1.30;;;;;;;;;;5048591;28;20088;-77
2022/09/13 14:01:16;;;;;;;2.67;1.40;;;;;;;;;;5044588;28;20488;-77
2022/09/13 14:03:57;;;;;;;4.95;1.30;;;;;;;;;;5052606;28;20052;-77
2022/09/13 14:06:38;;;;;;;3.92;1.40;;;;;;;;;;5050763;28;20049;-78
2022/09/13 14:09:12;;;;;;;2.50;1.38;;;;;;;;;;5042759;28;20070;-78
2022/09/13 14:11:47;;;;;;;3.35;1.63;;;;;;;;;;5045042;28;20049;-77
2022/09/13 14:14:22;;;;;;;3.20;1.40;;;;;;;;;;5042896;28;20061;-77
2022/09/13 14:16:51;;;;;;;5.57;1.38;;;;;;;;;;5033828;28;20041;-78
2022/09/13 14:19:20;;;;;;;3.38;1.30;;;;;;;;;;5047297;28;20072;-78
2022/09/13 14:21:46;;;;;;;3.28;1.30;;;;;;;;;;5051115;28;20061;-77
2022/09/13 14:24:17;;;;;;;3.63;1.73;;;;;;;;;;5051247;28;20476;-78
2022/09/13 14:26:44;;;;;;;2.25;1.38;;;;;;;;;;5045813;28;20131;-77
2022/09/13 14:29:14;;;;;;;4.70;1.65;;;;;;;;;;5044281;28;20045;-79
2022/09/13 14:31:44;;;;;;;2.35;1.30;;;;;;;;;;5039562;28;20481;-77
2022/09/13 14:34:43;;;;;;;2.95;1.30;;;;;;;;;;5032278;28;20042;-77
2022/09/13 14:37:25;;;;;;;7.53;1.40;;;;;;;;;;5000560;28;20390;-77
2022/09/13 14:40:01;;;;;;;5.25;1.55;;;;;;;;;;5040323;28;20049;-77
2022/09/13 14:42:37;;;;;;;3.55;1.15;;;;;;;;;;5049494;28;20103;-77
2022/09/13 14:45:03;;;;;;;2.95;1.30;;;;;;;;;;5049896;28;20526;-77
2022/09/13 14:47:43;;;;;;;2.72;1.27;;;;;;;;;;5047587;28;20488;-77
2022/09/13 14:50:14;;;;;;;4.63;1.20;;;;;;;;;;5047896;28;20052;-77
2022/09/13 14:52:43;;;;;;;2.58;1.42;;;;;;;;;;5040267;28;20052;-78
2022/09/13 14:55:13;;;;;;;4.20;1.38;;;;;;;;;;5042755;28;20049;-78
2022/09/13 14:57:42;;;;;;;2.42;1.30;;;;;;;;;;5033698;28;20505;-78
2022/09/13 15:00:14;;;;;;;1.15;0.93;;;;;;;;;;5045771;28;20041;-78
2022/09/13 15:02:44;;;;;;;2.47;1.30;;;;;;;;;;5047709;28;20033;-78
2022/09/13 15:05:14;;;;;;;2.13;1.10;;;;;;;;;;5045454;28;20045;-78